Time;durP1;ratioP1;P1;durP2;ratioP2;P2;SDS_P1;SDS_P2;PMS_P1;PMS_P2;Temp;Humidity;BMP_temperature;BMP_pressure;BME280_temperature;BME280_humidity;BME280_pressure;Samples;Min_cycle;Max_cycle;Signal;HPM_P1;HPM_P2
2022/02/01 00:03:36;;;;;;;29.77;13.15;;;;;;;;;;5093849;28;20265;-69
2022/02/01 00:08:56;;;;;;;52.13;21.23;;;;;;;;;;5094645;28;20056;-69
2022/02/01 00:17:14;;;;;;;21.70;11.32;;;;;;;;;;5094142;28;20024;-69
2022/02/01 00:35:48;;;;;;;49.17;23.20;;;;;;;;;;5094106;28;20020;-70
2022/02/01 00:38:22;;;;;;;50.97;23.80;;;;;;;;;;5093777;28;20024;-69
2022/02/01 00:40:54;;;;;;;50.65;22.70;;;;;;;;;;5094380;28;20028;-69
2022/02/01 00:43:21;;;;;;;56.03;25.67;;;;;;;;;;5094242;28;20020;-69
2022/02/01 00:45:48;;;;;;;53.47;25.60;;;;;;;;;;5093619;28;20028;-69
2022/02/01 00:48:14;;;;;;;43.65;21.67;;;;;;;;;;5093947;28;20467;-69
2022/02/01 00:50:41;;;;;;;40.25;18.48;;;;;;;;;;5094311;28;20032;-69
2022/02/01 00:53:07;;;;;;;45.88;22.42;;;;;;;;;;5093484;28;20024;-69
2022/02/01 00:55:33;;;;;;;43.17;22.23;;;;;;;;;;5075738;28;20028;-69
2022/02/01 00:57:59;;;;;;;44.55;19.85;;;;;;;;;;5093873;28;20016;-69
2022/02/01 01:00:26;;;;;;;39.08;18.33;;;;;;;;;;5075580;28;20525;-69
2022/02/01 01:02:52;;;;;;;40.95;17.98;;;;;;;;;;5093761;28;20024;-69
2022/02/01 01:05:18;;;;;;;31.50;15.85;;;;;;;;;;5093562;28;20024;-69
2022/02/01 01:07:44;;;;;;;31.08;15.27;;;;;;;;;;5093809;28;20098;-69
2022/02/01 01:10:12;;;;;;;34.03;14.68;;;;;;;;;;5075456;28;20373;-69
2022/02/01 01:12:49;;;;;;;28.27;13.70;;;;;;;;;;5093297;28;20031;-69
2022/02/01 01:15:24;;;;;;;26.38;10.52;;;;;;;;;;5093604;28;20020;-69
2022/02/01 01:44:52;;;;;;;29.10;11.85;;;;;;;;;;5093377;28;20050;-69
2022/02/01 01:55:34;;;;;;;34.00;15.23;;;;;;;;;;5092866;28;20511;-69
2022/02/01 01:58:01;;;;;;;40.75;16.88;;;;;;;;;;5075088;28;20107;-69
2022/02/01 02:01:14;;;;;;;44.65;21.45;;;;;;;;;;5093034;28;20023;-69
2022/02/01 02:03:14;;;;;;;41.17;19.30;;;;;;;;;;5078250;28;20042;-70
2022/02/01 02:05:40;;;;;;;44.63;21.50;;;;;;;;;;5093096;28;20524;-69
2022/02/01 02:08:06;;;;;;;27.90;17.65;;;;;;;;;;5093338;28;20046;-70
2022/02/01 02:10:39;;;;;;;34.40;15.93;;;;;;;;;;5092741;28;20020;-70
2022/02/01 02:15:59;;;;;;;27.27;11.13;;;;;;;;;;5092675;28;20510;-69
2022/02/01 02:18:27;;;;;;;22.85;11.73;;;;;;;;;;5074933;28;20028;-69
2022/02/01 02:20:57;;;;;;;27.02;11.32;;;;;;;;;;5092756;28;20082;-69
2022/02/01 02:23:23;;;;;;;26.83;11.85;;;;;;;;;;5092732;28;20069;-69
2022/02/01 02:25:50;;;;;;;26.20;11.77;;;;;;;;;;5074869;28;20052;-69
2022/02/01 02:28:17;;;;;;;28.67;12.13;;;;;;;;;;5095202;28;20020;-69
2022/02/01 02:30:47;;;;;;;28.23;12.50;;;;;;;;;;5096305;28;20165;-69
2022/02/01 02:33:15;;;;;;;21.85;11.80;;;;;;;;;;5096846;28;20428;-69
2022/02/01 02:35:52;;;;;;;28.30;12.93;;;;;;;;;;5096531;28;20023;-69
2022/02/01 02:38:27;;;;;;;25.60;11.25;;;;;;;;;;5096028;28;20536;-70
2022/02/01 02:46:04;;;;;;;26.13;10.68;;;;;;;;;;5096633;28;20092;-69
2022/02/01 02:48:30;;;;;;;24.48;10.45;;;;;;;;;;5078108;28;20024;-69
2022/02/01 02:50:57;;;;;;;20.88;8.70;;;;;;;;;;5095859;28;20035;-69
2022/02/01 02:53:23;;;;;;;17.08;8.38;;;;;;;;;;5096086;28;20016;-69
2022/02/01 02:55:49;;;;;;;14.98;7.97;;;;;;;;;;5096429;28;20496;-70
2022/02/01 02:58:15;;;;;;;18.80;7.43;;;;;;;;;;5095726;28;20081;-70
2022/02/01 03:00:41;;;;;;;16.88;7.03;;;;;;;;;;5095948;28;20060;-69
2022/02/01 03:03:08;;;;;;;18.70;7.70;;;;;;;;;;5095994;28;20052;-69
2022/02/01 03:05:34;;;;;;;16.60;6.78;;;;;;;;;;5095731;28;20107;-70
2022/02/01 03:08:00;;;;;;;13.48;6.88;;;;;;;;;;5095926;28;20024;-70
2022/02/01 03:10:27;;;;;;;18.08;6.40;;;;;;;;;;5095903;28;20028;-70
2022/02/01 03:15:50;;;;;;;22.77;10.73;;;;;;;;;;5095796;28;20082;-69
2022/02/01 03:21:01;;;;;;;20.25;8.27;;;;;;;;;;5095103;28;20050;-69
2022/02/01 03:23:27;;;;;;;20.55;8.30;;;;;;;;;;5077440;28;20491;-69
2022/02/01 03:25:54;;;;;;;19.92;9.27;;;;;;;;;;5060418;28;20032;-69
2022/02/01 03:28:20;;;;;;;24.70;9.88;;;;;;;;;;5095553;28;20023;-69
2022/02/01 03:30:46;;;;;;;17.50;8.50;;;;;;;;;;5095562;28;20060;-69
2022/02/01 03:33:12;;;;;;;17.90;7.70;;;;;;;;;;5095186;28;20017;-69
2022/02/01 03:35:38;;;;;;;17.50;7.30;;;;;;;;;;5095517;28;20023;-69
2022/02/01 03:38:05;;;;;;;20.60;8.13;;;;;;;;;;5095610;28;20059;-69
2022/02/01 03:40:31;;;;;;;23.02;10.05;;;;;;;;;;5094835;28;20051;-69
2022/02/01 03:42:57;;;;;;;20.00;9.20;;;;;;;;;;5095151;28;20088;-69
2022/02/01 03:45:24;;;;;;;18.95;8.68;;;;;;;;;;5095209;28;20052;-69
2022/02/01 03:47:50;;;;;;;23.35;10.05;;;;;;;;;;5094822;28;20027;-69
2022/02/01 03:50:16;;;;;;;17.38;7.53;;;;;;;;;;5095243;28;20024;-69
2022/02/01 03:52:42;;;;;;;30.95;11.10;;;;;;;;;;5094990;28;20028;-69
2022/02/01 03:55:09;;;;;;;36.50;18.80;;;;;;;;;;5094681;28;20026;-70
2022/02/01 03:57:35;;;;;;;19.23;10.02;;;;;;;;;;5094918;28;20473;-69
2022/02/01 04:00:01;;;;;;;21.80;10.48;;;;;;;;;;5094904;28;20510;-69
2022/02/01 04:02:27;;;;;;;19.10;9.13;;;;;;;;;;5076268;28;20107;-69
2022/02/01 04:04:53;;;;;;;18.40;8.55;;;;;;;;;;5094754;28;20043;-69
2022/02/01 04:07:20;;;;;;;18.67;8.93;;;;;;;;;;5094766;28;20067;-69
2022/02/01 04:09:51;;;;;;;18.98;8.02;;;;;;;;;;5094287;28;20028;-69
2022/02/01 04:12:17;;;;;;;19.02;8.77;;;;;;;;;;5094828;28;20051;-69
2022/02/01 04:14:45;;;;;;;15.95;6.55;;;;;;;;;;5076365;28;20496;-69
2022/02/01 04:17:12;;;;;;;14.07;6.38;;;;;;;;;;5094136;28;20069;-69
2022/02/01 04:19:38;;;;;;;17.88;7.53;;;;;;;;;;5094262;28;20040;-69
2022/02/01 04:22:06;;;;;;;17.05;7.60;;;;;;;;;;5094157;28;20028;-69
2022/02/01 04:24:37;;;;;;;19.85;8.10;;;;;;;;;;5094382;28;20527;-69
2022/02/01 04:27:04;;;;;;;17.17;6.63;;;;;;;;;;5094487;28;20078;-69
2022/02/01 04:29:31;;;;;;;24.83;12.32;;;;;;;;;;5093920;28;20035;-69
2022/02/01 04:31:57;;;;;;;24.08;10.25;;;;;;;;;;5094290;28;20035;-69
2022/02/01 04:34:23;;;;;;;18.60;7.95;;;;;;;;;;5094252;28;20044;-69
2022/02/01 04:36:50;;;;;;;14.70;7.18;;;;;;;;;;5093865;28;20476;-69
2022/02/01 04:39:16;;;;;;;15.45;6.55;;;;;;;;;;5094145;28;20073;-69
2022/02/01 04:41:43;;;;;;;11.95;5.43;;;;;;;;;;5094264;28;20081;-69
2022/02/01 04:44:09;;;;;;;28.50;7.95;;;;;;;;;;5093850;28;20024;-69
2022/02/01 04:46:35;;;;;;;20.33;8.73;;;;;;;;;;5094039;28;20024;-69
2022/02/01 04:49:08;;;;;;;15.55;7.05;;;;;;;;;;5094026;28;20020;-69
2022/02/01 04:51:34;;;;;;;18.15;8.57;;;;;;;;;;5093370;28;20020;-69
2022/02/01 04:54:01;;;;;;;17.52;7.05;;;;;;;;;;5094088;28;20020;-70
2022/02/01 04:56:27;;;;;;;19.50;8.38;;;;;;;;;;5093947;28;20028;-69
2022/02/01 04:58:53;;;;;;;14.80;7.10;;;;;;;;;;5093422;28;20477;-69
2022/02/01 05:01:31;;;;;;;22.98;11.00;;;;;;;;;;5093869;28;20043;-69
2022/02/01 05:03:58;;;;;;;19.27;9.05;;;;;;;;;;5093931;28;20027;-70
2022/02/01 05:06:25;;;;;;;18.35;8.70;;;;;;;;;;5093329;28;20059;-69
2022/02/01 05:08:52;;;;;;;14.55;7.78;;;;;;;;;;5075536;28;20426;-72
2022/02/01 05:11:19;;;;;;;13.52;5.65;;;;;;;;;;5093271;28;20020;-71
2022/02/01 05:16:44;;;;;;;15.05;5.47;;;;;;;;;;5093635;28;20063;-69
2022/02/01 05:19:16;;;;;;;12.70;4.95;;;;;;;;;;5093114;28;20077;-69
2022/02/01 05:21:43;;;;;;;13.98;5.18;;;;;;;;;;5093871;28;20032;-70
2022/02/01 05:24:12;;;;;;;14.20;5.07;;;;;;;;;;5093737;28;20020;-67
2022/02/01 05:26:38;;;;;;;13.52;6.40;;;;;;;;;;5093157;28;20047;-68
2022/02/01 05:29:04;;;;;;;19.08;11.48;;;;;;;;;;5094267;28;20380;-70
2022/02/01 05:31:31;;;;;;;15.70;8.65;;;;;;;;;;5093511;28;20028;-69
2022/02/01 05:33:57;;;;;;;17.50;7.72;;;;;;;;;;5093011;28;20107;-68
2022/02/01 05:36:23;;;;;;;16.88;8.60;;;;;;;;;;5093426;28;20074;-69
2022/02/01 05:38:52;;;;;;;15.43;8.30;;;;;;;;;;5093411;28;20028;-69
2022/02/01 05:41:19;;;;;;;16.48;7.72;;;;;;;;;;5092925;28;20067;-69
2022/02/01 05:43:45;;;;;;;18.33;5.80;;;;;;;;;;5093276;28;20024;-69
2022/02/01 05:46:12;;;;;;;19.77;6.45;;;;;;;;;;5093420;28;20519;-68
2022/02/01 05:48:38;;;;;;;14.23;5.00;;;;;;;;;;5092964;28;20099;-69
2022/02/01 05:51:05;;;;;;;10.30;4.30;;;;;;;;;;5075117;28;20449;-67
2022/02/01 05:53:31;;;;;;;11.43;5.05;;;;;;;;;;5093360;28;20020;-67
2022/02/01 05:55:57;;;;;;;12.50;6.45;;;;;;;;;;5093229;28;20032;-68
2022/02/01 05:58:23;;;;;;;15.00;6.28;;;;;;;;;;5093210;28;20657;-68
2022/02/01 06:00:50;;;;;;;13.73;6.75;;;;;;;;;;5092976;28;20032;-68
2022/02/01 06:03:16;;;;;;;14.07;6.80;;;;;;;;;;5095461;28;20494;-68
2022/02/01 06:05:42;;;;;;;20.75;8.88;;;;;;;;;;5097232;28;20024;-68
2022/02/01 06:08:09;;;;;;;27.92;14.80;;;;;;;;;;5078841;28;20350;-68
2022/02/01 06:10:35;;;;;;;53.00;27.92;;;;;;;;;;5096783;28;20038;-67
2022/02/01 06:13:01;;;;;;;66.53;36.50;;;;;;;;;;5092688;28;20036;-66
2022/02/01 06:15:28;;;;;;;36.72;19.65;;;;;;;;;;5076138;28;20040;-65
2022/02/01 06:17:55;;;;;;;28.02;17.58;;;;;;;;;;5076395;28;20123;-64
2022/02/01 06:20:32;;;;;;;27.88;16.73;;;;;;;;;;5071362;28;20524;-66
2022/02/01 06:22:59;;;;;;;27.42;17.40;;;;;;;;;;5068095;28;20031;-65
2022/02/01 06:26:01;;;;;;;34.60;20.52;;;;;;;;;;5073302;28;20033;-63
2022/02/01 06:28:26;;;;;;;103.00;41.53;;;;;;;;;;5071496;28;20090;-65
2022/02/01 06:30:53;;;;;;;84.38;37.85;;;;;;;;;;5057470;28;20540;-66
2022/02/01 06:33:23;;;;;;;30.20;14.52;;;;;;;;;;5076227;28;20072;-65
2022/02/01 06:35:49;;;;;;;25.85;11.77;;;;;;;;;;5075432;28;20020;-67
2022/02/01 06:38:15;;;;;;;33.20;13.05;;;;;;;;;;5075962;28;20021;-66
2022/02/01 06:40:43;;;;;;;25.90;11.15;;;;;;;;;;5075865;28;20040;-66
2022/02/01 06:43:09;;;;;;;27.80;14.00;;;;;;;;;;5075571;28;20016;-67
2022/02/01 06:45:35;;;;;;;21.92;10.45;;;;;;;;;;5073534;28;20054;-66
2022/02/01 06:48:02;;;;;;;19.38;10.55;;;;;;;;;;5068348;28;20469;-65
2022/02/01 06:50:28;;;;;;;17.88;10.35;;;;;;;;;;5075299;28;20046;-68
2022/02/01 06:52:57;;;;;;;18.45;11.00;;;;;;;;;;5075755;28;20096;-68
2022/02/01 06:55:44;;;;;;;27.10;14.35;;;;;;;;;;5075535;28;20147;-67
2022/02/01 06:58:14;;;;;;;20.65;11.75;;;;;;;;;;5075262;28;20032;-65
2022/02/01 07:00:41;;;;;;;23.52;14.98;;;;;;;;;;5075386;28;20020;-68
2022/02/01 07:03:08;;;;;;;46.08;24.58;;;;;;;;;;5075458;28;20500;-68
2022/02/01 07:05:34;;;;;;;38.35;21.77;;;;;;;;;;5074806;28;20037;-67
2022/02/01 07:08:00;;;;;;;53.30;30.33;;;;;;;;;;5075739;28;20021;-66
2022/02/01 07:10:26;;;;;;;59.95;34.22;;;;;;;;;;5072565;28;20780;-65
2022/02/01 07:12:53;;;;;;;69.05;39.63;;;;;;;;;;5050225;28;20802;-67
2022/02/01 07:15:19;;;;;;;67.55;40.88;;;;;;;;;;5047061;28;20037;-66
2022/02/01 07:17:45;;;;;;;58.28;34.30;;;;;;;;;;5062926;28;20142;-68
2022/02/01 07:20:12;;;;;;;53.83;33.20;;;;;;;;;;5055443;28;20108;-67
2022/02/01 07:22:41;;;;;;;57.70;32.97;;;;;;;;;;5070470;28;20111;-67
2022/02/01 07:25:22;;;;;;;57.85;31.08;;;;;;;;;;5076187;28;20027;-66
2022/02/01 07:27:48;;;;;;;56.25;29.38;;;;;;;;;;5082881;28;20013;-64
2022/02/01 07:30:20;;;;;;;48.58;26.17;;;;;;;;;;5073247;28;20427;-64
2022/02/01 07:32:47;;;;;;;38.47;24.83;;;;;;;;;;5088760;28;20126;-67
2022/02/01 07:35:13;;;;;;;45.80;25.58;;;;;;;;;;5094871;28;20024;-67
2022/02/01 07:37:40;;;;;;;50.30;29.90;;;;;;;;;;5093761;28;20056;-66
2022/02/01 07:40:07;;;;;;;50.80;31.30;;;;;;;;;;5092009;28;20132;-67
2022/02/01 07:42:34;;;;;;;52.75;32.40;;;;;;;;;;5078954;28;20040;-65
2022/02/01 07:45:03;;;;;;;31.40;21.38;;;;;;;;;;5073728;28;20095;-68
2022/02/01 07:47:29;;;;;;;39.05;24.15;;;;;;;;;;5055378;28;20028;-68
2022/02/01 07:49:55;;;;;;;40.05;25.15;;;;;;;;;;5072934;28;20111;-65
2022/02/01 07:52:22;;;;;;;49.83;30.38;;;;;;;;;;5074046;28;20425;-67
2022/02/01 07:54:48;;;;;;;47.97;29.02;;;;;;;;;;5073921;28;20033;-69
2022/02/01 07:57:14;;;;;;;57.05;35.97;;;;;;;;;;5056056;28;20033;-68
2022/02/01 07:59:41;;;;;;;54.53;32.53;;;;;;;;;;5074232;28;20051;-68
2022/02/01 08:02:17;;;;;;;68.32;38.35;;;;;;;;;;5071852;28;20096;-68
2022/02/01 08:04:44;;;;;;;49.90;31.90;;;;;;;;;;5056896;28;20028;-67
2022/02/01 08:07:10;;;;;;;61.47;31.63;;;;;;;;;;5072521;28;20025;-67
2022/02/01 08:09:40;;;;;;;61.10;36.42;;;;;;;;;;5072224;28;20082;-68
2022/02/01 08:12:20;;;;;;;47.38;28.25;;;;;;;;;;5054852;28;20021;-67
2022/02/01 08:20:02;;;;;;;36.75;21.75;;;;;;;;;;5074078;28;20052;-65
2022/02/01 08:22:37;;;;;;;27.23;16.23;;;;;;;;;;5078329;28;20028;-66
2022/02/01 08:25:04;;;;;;;38.00;24.65;;;;;;;;;;5080261;28;20024;-70
2022/02/01 08:27:31;;;;;;;32.75;18.90;;;;;;;;;;5075756;28;20020;-68
2022/02/01 08:29:58;;;;;;;46.63;27.17;;;;;;;;;;5093331;28;20392;-68
2022/02/01 08:32:24;;;;;;;43.60;21.63;;;;;;;;;;5052279;28;20047;-67
2022/02/01 08:34:50;;;;;;;38.75;20.00;;;;;;;;;;5072854;28;20082;-67
2022/02/01 08:37:17;;;;;;;36.13;22.08;;;;;;;;;;5054726;28;20021;-66
2022/02/01 08:39:43;;;;;;;33.10;17.95;;;;;;;;;;5072742;28;20473;-68
2022/02/01 08:42:09;;;;;;;25.02;14.38;;;;;;;;;;5055602;28;20056;-70
2022/02/01 08:44:36;;;;;;;25.20;15.00;;;;;;;;;;5054972;28;20017;-69
2022/02/01 08:47:02;;;;;;;16.80;9.57;;;;;;;;;;5055153;28;20112;-71
2022/02/01 08:49:28;;;;;;;15.68;8.10;;;;;;;;;;5072785;28;20078;-67
2022/02/01 08:52:22;;;;;;;17.85;9.43;;;;;;;;;;5073115;28;20017;-68
2022/02/01 08:54:50;;;;;;;16.58;9.38;;;;;;;;;;5071856;28;20040;-71
2022/02/01 08:57:25;;;;;;;14.77;9.55;;;;;;;;;;5073969;28;20024;-69
2022/02/01 09:00:05;;;;;;;19.30;11.25;;;;;;;;;;5055432;28;20128;-70
2022/02/01 09:02:33;;;;;;;18.63;12.95;;;;;;;;;;5055238;28;20043;-70
2022/02/01 09:04:59;;;;;;;33.75;19.02;;;;;;;;;;5054008;28;20033;-69
2022/02/01 09:07:26;;;;;;;24.85;15.15;;;;;;;;;;5072816;28;20021;-68
2022/02/01 09:09:52;;;;;;;18.38;11.68;;;;;;;;;;5072392;28;20077;-71
2022/02/01 09:12:18;;;;;;;40.53;23.90;;;;;;;;;;5072308;28;20484;-67
2022/02/01 09:14:46;;;;;;;34.13;19.80;;;;;;;;;;5072677;28;20547;-68
2022/02/01 09:17:14;;;;;;;24.40;13.68;;;;;;;;;;5072942;28;20477;-69
2022/02/01 09:19:44;;;;;;;22.45;12.73;;;;;;;;;;5061734;28;20071;-67
2022/02/01 09:22:10;;;;;;;18.20;10.25;;;;;;;;;;5082780;28;20038;-68
2022/02/01 09:24:37;;;;;;;23.35;12.10;;;;;;;;;;5072536;28;20509;-70
2022/02/01 09:27:03;;;;;;;17.00;10.40;;;;;;;;;;5072812;28;20389;-71
2022/02/01 09:29:29;;;;;;;20.63;10.90;;;;;;;;;;5071401;28;20020;-70
2022/02/01 09:31:56;;;;;;;21.17;11.07;;;;;;;;;;5072189;28;20017;-69
2022/02/01 09:34:23;;;;;;;25.92;13.65;;;;;;;;;;5072773;28;20093;-71
2022/02/01 09:36:50;;;;;;;26.48;14.02;;;;;;;;;;5074447;28;20032;-70
2022/02/01 09:39:16;;;;;;;22.13;13.05;;;;;;;;;;5076641;28;20055;-70
2022/02/01 09:41:43;;;;;;;24.52;13.38;;;;;;;;;;5087986;28;20063;-70
2022/02/01 09:44:12;;;;;;;21.60;13.38;;;;;;;;;;5090895;28;20028;-70
2022/02/01 09:46:38;;;;;;;31.10;18.27;;;;;;;;;;5095415;28;20464;-70
2022/02/01 09:49:05;;;;;;;24.77;15.20;;;;;;;;;;5096000;28;20024;-67
2022/02/01 09:51:31;;;;;;;20.27;12.93;;;;;;;;;;5090654;28;20024;-67
2022/02/01 09:53:57;;;;;;;28.35;17.00;;;;;;;;;;5096834;28;20027;-65
2022/02/01 09:56:23;;;;;;;26.02;16.48;;;;;;;;;;5095190;28;20070;-67
2022/02/01 09:58:55;;;;;;;31.08;17.85;;;;;;;;;;5093250;28;20504;-69
2022/02/01 10:01:25;;;;;;;31.33;18.15;;;;;;;;;;5093075;28;20523;-70
2022/02/01 10:04:07;;;;;;;22.05;13.15;;;;;;;;;;5090693;28;20064;-69
2022/02/01 10:06:38;;;;;;;21.33;14.60;;;;;;;;;;5091729;28;20175;-68
2022/02/01 10:09:05;;;;;;;17.00;11.70;;;;;;;;;;5074890;28;20362;-70
2022/02/01 10:11:40;;;;;;;22.00;12.68;;;;;;;;;;5074712;28;20071;-70
2022/02/01 10:14:08;;;;;;;27.70;15.82;;;;;;;;;;5075947;28;20090;-69
2022/02/01 10:16:48;;;;;;;17.33;11.63;;;;;;;;;;5074991;28;20133;-68
2022/02/01 10:19:14;;;;;;;23.05;15.13;;;;;;;;;;5082329;28;20549;-68
2022/02/01 10:22:07;;;;;;;35.55;19.85;;;;;;;;;;5056619;28;20052;-67
2022/02/01 10:24:42;;;;;;;36.13;18.63;;;;;;;;;;5053204;28;20032;-66
2022/02/01 10:27:24;;;;;;;26.10;16.98;;;;;;;;;;5075355;28;20031;-67
2022/02/01 10:30:00;;;;;;;26.48;14.18;;;;;;;;;;5056218;28;20025;-67
2022/02/01 10:32:47;;;;;;;30.45;17.35;;;;;;;;;;5056255;28;20067;-68
2022/02/01 10:38:03;;;;;;;30.67;17.02;;;;;;;;;;5055959;28;20021;-68
2022/02/01 10:40:36;;;;;;;26.75;14.50;;;;;;;;;;5055828;28;20477;-68
2022/02/01 10:43:04;;;;;;;28.23;15.68;;;;;;;;;;5055435;28;20542;-67
2022/02/01 10:45:41;;;;;;;33.33;17.20;;;;;;;;;;5055351;28;20040;-67
2022/02/01 10:48:12;;;;;;;37.53;19.08;;;;;;;;;;5055055;28;20029;-66
2022/02/01 10:50:38;;;;;;;28.35;16.50;;;;;;;;;;5037289;28;20029;-67
2022/02/01 10:53:04;;;;;;;27.75;14.45;;;;;;;;;;5055685;28;20355;-67
2022/02/01 10:55:31;;;;;;;30.52;17.90;;;;;;;;;;5037500;28;20033;-66
2022/02/01 10:57:57;;;;;;;27.50;15.10;;;;;;;;;;5055327;28;20424;-65
2022/02/01 11:00:23;;;;;;;30.42;18.13;;;;;;;;;;5055400;28;20061;-65
2022/02/01 11:02:49;;;;;;;23.35;13.20;;;;;;;;;;5055290;28;20131;-66
2022/02/01 11:05:17;;;;;;;21.02;13.60;;;;;;;;;;5054745;28;20068;-67
2022/02/01 11:07:44;;;;;;;24.98;15.30;;;;;;;;;;5037318;28;20109;-66
2022/02/01 11:10:18;;;;;;;23.48;13.18;;;;;;;;;;5055276;28;20033;-67
2022/02/01 11:12:45;;;;;;;24.58;14.32;;;;;;;;;;5055076;28;20049;-67
2022/02/01 11:15:18;;;;;;;21.10;13.00;;;;;;;;;;5054933;28;20056;-67
2022/02/01 11:17:50;;;;;;;;;;;;;;;;;;5054935;28;20087;-64
2022/02/01 11:20:26;;;;;;;21.67;13.23;;;;;;;;;;5054254;28;19952;-65
2022/02/01 11:23:01;;;;;;;48.58;19.60;;;;;;;;;;5056976;28;20071;-67
2022/02/01 11:25:42;;;;;;;26.60;14.63;;;;;;;;;;5054204;28;20028;-65
2022/02/01 11:28:13;;;;;;;30.77;15.23;;;;;;;;;;5052049;28;20473;-67
2022/02/01 11:30:42;;;;;;;33.35;15.30;;;;;;;;;;5054192;28;20420;-68
2022/02/01 11:33:11;;;;;;;37.72;18.00;;;;;;;;;;5053662;28;20028;-71
2022/02/01 11:35:38;;;;;;;22.85;15.27;;;;;;;;;;5053385;28;20032;-67
2022/02/01 11:38:05;;;;;;;21.58;13.93;;;;;;;;;;5052240;28;20377;-68
2022/02/01 11:40:46;;;;;;;19.10;12.57;;;;;;;;;;5052637;28;20032;-67
2022/02/01 11:43:13;;;;;;;20.15;13.52;;;;;;;;;;5052663;28;20021;-68
2022/02/01 11:45:41;;;;;;;25.08;14.35;;;;;;;;;;5052057;28;20029;-66
2022/02/01 11:48:21;;;;;;;19.33;13.40;;;;;;;;;;5052677;28;20477;-66
2022/02/01 11:50:58;;;;;;;21.92;14.00;;;;;;;;;;5052590;28;20021;-66
2022/02/01 11:53:25;;;;;;;22.13;13.95;;;;;;;;;;5052054;28;20492;-67
2022/02/01 11:55:53;;;;;;;21.45;14.20;;;;;;;;;;5052381;28;20033;-67
2022/02/01 11:58:28;;;;;;;19.27;11.25;;;;;;;;;;5052784;28;20021;-69
2022/02/01 12:00:55;;;;;;;18.40;11.90;;;;;;;;;;5052894;28;20096;-70
2022/02/01 12:03:26;;;;;;;20.60;12.75;;;;;;;;;;5054398;28;20135;-65
2022/02/01 12:05:57;;;;;;;24.50;12.48;;;;;;;;;;5054208;28;20096;-66
2022/02/01 12:08:28;;;;;;;18.25;10.75;;;;;;;;;;5036010;28;20025;-67
2022/02/01 12:10:57;;;;;;;21.13;12.52;;;;;;;;;;5054528;28;20025;-67
2022/02/01 12:13:27;;;;;;;18.67;11.23;;;;;;;;;;5053737;28;20476;-67
2022/02/01 12:15:54;;;;;;;15.68;10.30;;;;;;;;;;5053993;28;20024;-64
2022/02/01 12:18:39;;;;;;;23.63;14.63;;;;;;;;;;5054152;28;20028;-69
2022/02/01 12:21:06;;;;;;;20.02;12.60;;;;;;;;;;5053396;28;20052;-70
2022/02/01 12:23:32;;;;;;;21.13;12.75;;;;;;;;;;5053821;28;20096;-67
2022/02/01 12:25:59;;;;;;;21.55;12.93;;;;;;;;;;5053467;28;20025;-66
2022/02/01 12:28:29;;;;;;;14.77;10.25;;;;;;;;;;5053459;28;20017;-66
2022/02/01 12:31:11;;;;;;;24.27;12.75;;;;;;;;;;5053833;28;20025;-72
2022/02/01 12:33:42;;;;;;;19.52;10.77;;;;;;;;;;5035730;28;20132;-71
2022/02/01 12:36:09;;;;;;;20.77;12.25;;;;;;;;;;5053404;28;20094;-72
2022/02/01 12:38:35;;;;;;;22.60;12.95;;;;;;;;;;5053807;28;20021;-70
2022/02/01 12:41:13;;;;;;;24.95;13.43;;;;;;;;;;5067261;28;20113;-68
2022/02/01 12:43:56;;;;;;;20.45;11.25;;;;;;;;;;5072308;28;20048;-68
2022/02/01 12:46:35;;;;;;;14.30;9.25;;;;;;;;;;5072786;28;20081;-67
2022/02/01 12:49:01;;;;;;;19.13;10.07;;;;;;;;;;5072311;28;20013;-66
2022/02/01 12:51:37;;;;;;;16.52;10.20;;;;;;;;;;5073300;28;20035;-64
2022/02/01 12:54:04;;;;;;;16.83;9.75;;;;;;;;;;5070629;28;20020;-67
2022/02/01 12:56:30;;;;;;;15.48;9.98;;;;;;;;;;5073238;28;20060;-67
2022/02/01 12:58:57;;;;;;;16.00;9.77;;;;;;;;;;5072987;28;20115;-66
2022/02/01 13:01:30;;;;;;;20.58;12.35;;;;;;;;;;5073083;28;20077;-67
2022/02/01 13:03:56;;;;;;;22.95;11.93;;;;;;;;;;5072739;28;20025;-66
2022/02/01 13:06:23;;;;;;;24.35;14.07;;;;;;;;;;5073178;28;20421;-71
2022/02/01 13:17:17;;;;;;;17.35;10.05;;;;;;;;;;5052663;28;20063;-72
2022/02/01 13:20:05;;;;;;;18.83;10.55;;;;;;;;;;5063854;28;20048;-68
2022/02/01 13:22:34;;;;;;;24.95;13.15;;;;;;;;;;5072031;28;20050;-68
2022/02/01 13:25:01;;;;;;;18.40;11.80;;;;;;;;;;5072394;28;20066;-66
2022/02/01 13:27:27;;;;;;;21.67;12.27;;;;;;;;;;5073026;28;20025;-67
2022/02/01 13:30:04;;;;;;;15.98;8.63;;;;;;;;;;5069683;28;20395;-64
2022/02/01 13:32:42;;;;;;;16.90;9.57;;;;;;;;;;5071978;28;20411;-65
2022/02/01 13:35:12;;;;;;;12.27;8.30;;;;;;;;;;5073308;28;20044;-66
2022/02/01 13:37:46;;;;;;;16.55;9.75;;;;;;;;;;5069980;28;20021;-67
2022/02/01 13:40:22;;;;;;;14.10;8.73;;;;;;;;;;5052832;28;20028;-69
2022/02/01 13:42:48;;;;;;;15.35;8.30;;;;;;;;;;5052991;28;20424;-68
2022/02/01 13:45:14;;;;;;;13.27;7.45;;;;;;;;;;5051422;28;20013;-70
2022/02/01 13:47:45;;;;;;;13.70;7.85;;;;;;;;;;5051900;28;20382;-69
2022/02/01 13:50:11;;;;;;;13.73;7.97;;;;;;;;;;5052119;28;20064;-68
2022/02/01 13:52:37;;;;;;;10.82;8.18;;;;;;;;;;5052085;28;20018;-69
2022/02/01 13:55:05;;;;;;;11.90;6.60;;;;;;;;;;5052662;28;20052;-68
2022/02/01 13:57:32;;;;;;;15.18;8.65;;;;;;;;;;5052673;28;20450;-69
2022/02/01 14:00:07;;;;;;;15.60;10.02;;;;;;;;;;5052332;28;20025;-68
2022/02/01 14:02:38;;;;;;;20.58;11.23;;;;;;;;;;5052762;28;20025;-69
2022/02/01 14:05:14;;;;;;;20.85;12.27;;;;;;;;;;5052809;28;20024;-70
2022/02/01 14:08:12;;;;;;;20.02;12.05;;;;;;;;;;5052364;28;20046;-69
2022/02/01 14:26:52;;;;;;;17.17;9.68;;;;;;;;;;5056627;28;20436;-69
2022/02/01 14:32:06;;;;;;;18.08;9.15;;;;;;;;;;5056195;28;20032;-69
2022/02/01 14:34:34;;;;;;;21.63;10.00;;;;;;;;;;5055643;28;20021;-69
2022/02/01 14:37:05;;;;;;;18.58;10.95;;;;;;;;;;5055865;28;20118;-70
2022/02/01 14:44:48;;;;;;;22.05;12.85;;;;;;;;;;5060189;28;20024;-67
2022/02/01 14:47:16;;;;;;;27.38;15.10;;;;;;;;;;5075870;28;20488;-69
2022/02/01 14:49:42;;;;;;;25.90;12.88;;;;;;;;;;5075496;28;20028;-70
2022/02/01 14:52:08;;;;;;;21.75;11.95;;;;;;;;;;5075867;28;20031;-69
2022/02/01 14:54:40;;;;;;;23.33;12.68;;;;;;;;;;5075827;28;20029;-70
2022/02/01 15:13:17;;;;;;;21.35;12.90;;;;;;;;;;5075767;28;20032;-69
2022/02/01 15:15:43;;;;;;;21.05;12.75;;;;;;;;;;5075419;28;20100;-69
2022/02/01 15:18:09;;;;;;;21.52;13.48;;;;;;;;;;5057075;28;20392;-69
2022/02/01 15:20:35;;;;;;;18.10;12.20;;;;;;;;;;5075095;28;20045;-70
2022/02/01 15:23:02;;;;;;;16.75;11.18;;;;;;;;;;5075226;28;20392;-70
2022/02/01 15:25:28;;;;;;;24.98;13.00;;;;;;;;;;5074917;28;20027;-70
2022/02/01 15:27:55;;;;;;;19.63;12.27;;;;;;;;;;5057226;28;20021;-68
2022/02/01 15:30:21;;;;;;;13.15;8.95;;;;;;;;;;5074691;28;20027;-68
2022/02/01 15:32:48;;;;;;;21.77;12.23;;;;;;;;;;5075056;28;20029;-69
2022/02/01 15:35:16;;;;;;;20.30;12.15;;;;;;;;;;5074788;28;20062;-68
2022/02/01 15:37:47;;;;;;;20.45;11.45;;;;;;;;;;5074649;28;20017;-68
2022/02/01 15:57:21;;;;;;;24.83;14.80;;;;;;;;;;4993190;28;20026;-69
2022/02/01 15:59:48;;;;;;;22.40;12.65;;;;;;;;;;5048091;28;20024;-69
2022/02/01 16:02:16;;;;;;;24.00;14.45;;;;;;;;;;5073678;28;20040;-69
2022/02/01 16:04:51;;;;;;;17.27;10.40;;;;;;;;;;5071803;28;20420;-69
2022/02/01 16:07:18;;;;;;;23.65;14.15;;;;;;;;;;5074060;28;20020;-70
2022/02/01 16:12:25;;;;;;;21.45;13.20;;;;;;;;;;5074356;28;20025;-70
2022/02/01 16:14:51;;;;;;;23.35;12.13;;;;;;;;;;5074220;28;20458;-69
2022/02/01 16:17:17;;;;;;;18.25;10.05;;;;;;;;;;5074330;28;20539;-68
2022/02/01 16:19:44;;;;;;;19.33;11.38;;;;;;;;;;5073583;28;20152;-69
2022/02/01 16:22:11;;;;;;;14.43;9.15;;;;;;;;;;5056135;28;20060;-69
2022/02/01 16:24:37;;;;;;;21.98;12.98;;;;;;;;;;5073222;28;20090;-70
2022/02/01 16:27:07;;;;;;;25.92;13.88;;;;;;;;;;5073884;28;20427;-68
2022/02/01 16:29:34;;;;;;;17.88;11.05;;;;;;;;;;5074266;28;20026;-68
2022/02/01 16:32:00;;;;;;;15.27;9.90;;;;;;;;;;5074224;28;20104;-68
2022/02/01 16:34:26;;;;;;;20.27;12.00;;;;;;;;;;5073676;28;20465;-68
2022/02/01 16:36:52;;;;;;;16.95;10.20;;;;;;;;;;5073946;28;20024;-68
2022/02/01 16:39:19;;;;;;;25.70;15.00;;;;;;;;;;5073964;28;20020;-69
2022/02/01 16:41:52;;;;;;;27.02;15.55;;;;;;;;;;5055479;28;20526;-68
2022/02/01 16:44:19;;;;;;;26.10;15.13;;;;;;;;;;5073810;28;20465;-69
2022/02/01 16:46:45;;;;;;;27.70;15.20;;;;;;;;;;5073755;28;20063;-69
2022/02/01 16:49:12;;;;;;;25.15;14.38;;;;;;;;;;5073319;28;20044;-68
2022/02/01 16:51:39;;;;;;;24.25;14.43;;;;;;;;;;5055656;28;20025;-69
2022/02/01 16:54:10;;;;;;;24.83;13.55;;;;;;;;;;5073683;28;20023;-68
2022/02/01 16:56:53;;;;;;;27.60;14.93;;;;;;;;;;5073323;28;20017;-68
2022/02/01 16:59:24;;;;;;;23.10;13.85;;;;;;;;;;5073891;28;20020;-69
2022/02/01 17:01:51;;;;;;;22.35;12.38;;;;;;;;;;5073286;28;20029;-68
2022/02/01 17:04:17;;;;;;;21.90;13.75;;;;;;;;;;5073893;28;20095;-69
2022/02/01 17:06:44;;;;;;;30.35;16.13;;;;;;;;;;5073280;28;20029;-68